Time;durP1;ratioP1;P1;durP2;ratioP2;P2;SDS_P1;SDS_P2;PMS_P1;PMS_P2;Temp;Humidity;BMP_temperature;BMP_pressure;BME280_temperature;BME280_humidity;BME280_pressure;Samples;Min_cycle;Max_cycle;Signal;HPM_P1;HPM_P2
2023/01/07 00:00:47;;;;;;;;;0.50;0.50;;;;;10.28;53.65;100528.44;5047247;28;45404;-71
2023/01/07 00:03:15;;;;;;;;;1.00;1.00;;;;;10.29;53.57;100525.00;5040347;28;45929;-75
2023/01/07 00:05:41;;;;;;;;;1.00;1.00;;;;;10.37;52.84;100522.66;5041006;28;46122;-69
2023/01/07 00:08:06;;;;;;;;;0.00;0.00;;;;;10.39;52.37;100519.25;5047689;28;45506;-74
2023/01/07 00:10:33;;;;;;;;;0.33;0.33;;;;;10.41;52.36;100520.19;5043407;28;45470;-71
2023/01/07 00:12:59;;;;;;;;;1.00;1.00;;;;;10.41;52.30;100516.69;5043112;28;45440;-70
2023/01/07 00:15:24;;;;;;;;;0.25;0.00;;;;;10.39;52.50;100519.25;5037522;28;45507;-68
2023/01/07 00:17:50;;;;;;;;;1.75;1.00;;;;;10.37;52.84;100512.22;5043267;28;45527;-73
2023/01/07 00:20:15;;;;;;;;;0.67;0.00;;;;;10.28;52.48;100505.81;5037843;28;45543;-73
2023/01/07 00:22:41;;;;;;;;;1.00;0.25;;;;;10.33;52.42;100499.06;5043270;28;45464;-73
2023/01/07 00:25:06;;;;;;;;;0.75;0.75;;;;;10.36;52.56;100490.44;5041567;28;45386;-69
2023/01/07 00:27:32;;;;;;;;;0.33;0.33;;;;;10.42;53.04;100508.88;5034566;28;45457;-73
2023/01/07 00:29:57;;;;;;;;;0.50;0.50;;;;;10.40;52.90;100500.13;5042765;28;45491;-72
2023/01/07 00:32:46;;;;;;;;;1.00;0.00;;;;;10.36;53.03;100506.09;5045090;28;45525;-74
2023/01/07 00:35:21;;;;;;;;;4.00;4.00;;;;;10.32;53.16;100501.63;5044899;28;45956;-68
2023/01/07 00:37:50;;;;;;;;;2.00;1.00;;;;;10.26;53.06;100502.28;5044763;28;45488;-72
2023/01/07 00:40:16;;;;;;;;;0.75;0.75;;;;;10.23;53.34;100503.94;5042504;28;45833;-73
2023/01/07 00:42:54;;;;;;;;;1.00;1.00;;;;;10.20;53.20;100496.88;5044856;28;45306;-72
2023/01/07 00:45:21;;;;;;;;;1.00;1.00;;;;;10.21;53.14;100501.28;5048120;28;45674;-72
2023/01/07 00:47:47;;;;;;;;;0.00;0.00;;;;;10.19;52.86;100500.34;5042302;28;46563;-71
2023/01/07 00:50:12;;;;;;;;;1.00;1.00;;;;;10.16;52.96;100501.09;5040159;28;45513;-72
2023/01/07 00:52:38;;;;;;;;;1.00;1.00;;;;;10.16;53.18;100501.09;5043832;28;45554;-69
2023/01/07 00:55:04;;;;;;;;;0.50;0.25;;;;;10.15;53.47;100488.91;5041979;28;45427;-71
2023/01/07 00:57:29;;;;;;;;;2.00;0.00;;;;;10.18;52.89;100493.34;5042760;28;45629;-71
2023/01/07 00:59:55;;;;;;;;;10.50;10.25;;;;;10.20;53.10;100482.94;5040065;28;46262;-71
2023/01/07 01:02:20;;;;;;;;;4.00;4.00;;;;;10.22;52.77;100483.88;5040832;28;45464;-74
2023/01/07 01:04:46;;;;;;;;;2.00;1.00;;;;;10.23;52.57;100467.38;5047480;28;45566;-68
2023/01/07 01:07:11;;;;;;;;;2.75;2.75;;;;;10.26;52.48;100470.06;5040720;28;45569;-71
2023/01/07 01:09:37;;;;;;;;;12.00;8.50;;;;;10.28;52.31;100463.16;5036370;28;45518;-70
2023/01/07 01:12:02;;;;;;;;;3.00;2.00;;;;;10.22;52.67;100448.19;5041838;28;45408;-71
2023/01/07 01:14:28;;;;;;;;;0.75;0.75;;;;;10.27;52.47;100450.97;5039724;28;45453;-70
2023/01/07 01:16:53;;;;;;;;;2.00;1.00;;;;;10.27;52.31;100457.06;5040243;28;45556;-72
2023/01/07 01:19:19;;;;;;;;;1.00;1.00;;;;;10.00;52.36;100398.81;5039565;28;45488;-71
2023/01/07 01:21:44;;;;;;;;;1.00;1.00;;;;;10.30;52.22;100453.69;5040335;28;46068;-72
2023/01/07 01:24:10;;;;;;;;;1.00;1.00;;;;;10.31;52.09;100442.41;5043556;28;46992;-76
2023/01/07 01:26:35;;;;;;;;;1.00;1.00;;;;;10.34;51.75;100448.63;5044824;28;45704;-76
2023/01/07 01:29:01;;;;;;;;;0.00;0.00;;;;;10.28;51.80;100424.88;5050117;28;45553;-75
2023/01/07 01:31:26;;;;;;;;;1.00;1.00;;;;;10.35;51.99;100444.28;5055182;28;45583;-71
2023/01/07 01:33:53;;;;;;;;;1.00;1.00;;;;;10.34;51.62;100437.28;5057491;28;45351;-72
2023/01/07 01:36:19;;;;;;;;;1.33;1.00;;;;;10.06;52.06;100391.16;5056921;28;45431;-68
2023/01/07 01:38:45;;;;;;;;;1.00;1.00;;;;;10.27;52.04;100420.53;5056938;28;45468;-73
2023/01/07 01:41:15;;;;;;;;;1.00;1.00;;;;;10.17;51.94;100402.81;5058486;28;45250;-69
2023/01/07 01:43:43;;;;;;;;;1.00;1.00;;;;;10.28;51.94;100424.00;5056821;28;45351;-71
2023/01/07 01:46:11;;;;;;;;;1.00;1.00;;;;;10.29;51.52;100407.50;5057442;28;45482;-72
2023/01/07 01:48:40;;;;;;;;;0.00;0.00;;;;;10.38;50.60;100399.97;5056668;28;45146;-71
2023/01/07 01:51:09;;;;;;;;;0.00;0.00;;;;;10.46;49.49;100390.59;5057006;28;46036;-69
2023/01/07 01:53:36;;;;;;;;;1.00;0.33;;;;;10.53;48.86;100366.44;5047977;28;46171;-71
2023/01/07 01:56:20;;;;;;;;;1.00;1.00;;;;;10.77;49.05;100362.72;5057191;28;45357;-72
2023/01/07 01:59:08;;;;;;;;;2.50;2.00;;;;;10.94;48.27;100363.13;5056236;28;45604;-71
2023/01/07 02:01:35;;;;;;;;;1.00;1.00;;;;;11.25;47.27;100358.69;5056434;28;45551;-75
2023/01/07 02:04:09;;;;;;;;;1.00;1.00;;;;;11.49;46.35;100363.63;5056967;28;46481;-68
2023/01/07 02:06:38;;;;;;;;;1.67;1.67;;;;;11.64;45.90;100343.03;5056326;28;45484;-69
2023/01/07 02:09:04;;;;;;;;;0.00;0.00;;;;;11.77;45.64;100357.25;5052079;28;45518;-69
2023/01/07 02:11:35;;;;;;;;;1.00;1.00;;;;;11.81;45.68;100355.59;5056969;28;45560;-69
2023/01/07 02:14:39;;;;;;;;;2.00;1.00;;;;;11.88;45.15;100376.72;5056799;28;46122;-74
2023/01/07 02:17:43;;;;;;;;;0.00;0.00;;;;;11.96;44.39;100348.13;5056145;28;45473;-70
2023/01/07 02:20:44;;;;;;;;;2.67;2.00;;;;;11.99;44.04;100363.88;5055703;28;45581;-74
2023/01/07 02:23:09;;;;;;;;;1.00;1.00;;;;;12.06;43.88;100357.94;5012561;28;45362;-74
2023/01/07 02:26:02;;;;;;;;;2.67;1.00;;;;;12.10;44.03;100358.88;5056082;28;46558;-70
2023/01/07 02:29:05;;;;;;;;;2.33;2.00;;;;;12.07;43.94;100369.28;5051981;28;45638;-71
2023/01/07 02:31:45;;;;;;;;;2.00;1.33;;;;;12.06;43.75;100343.97;5054985;28;45358;-67
2023/01/07 02:34:23;;;;;;;;;1.33;1.33;;;;;12.09;43.99;100354.47;5054481;28;45276;-75
2023/01/07 02:37:11;;;;;;;;;2.00;2.00;;;;;12.02;44.17;100344.75;5056516;28;45265;-75
2023/01/07 02:40:13;;;;;;;;;1.00;1.00;;;;;12.03;44.06;100339.53;5055162;28;45456;-71
2023/01/07 02:43:00;;;;;;;;;2.67;1.67;;;;;12.05;43.59;100337.81;5055881;28;45632;-75
2023/01/07 02:46:00;;;;;;;;;2.00;2.00;;;;;12.10;43.62;100333.56;5056232;28;45328;-71
2023/01/07 02:48:27;;;;;;;;;3.00;2.33;;;;;12.08;43.65;100334.41;5038218;28;46169;-74
2023/01/07 02:50:52;;;;;;;;;1.00;1.00;;;;;12.05;43.90;100329.09;5055652;28;45453;-75
2023/01/07 02:53:19;;;;;;;;;1.00;1.00;;;;;12.02;44.06;100316.84;5056060;28;45487;-70
2023/01/07 02:56:29;;;;;;;;;3.25;2.00;;;;;12.03;44.07;100321.19;5056648;28;45573;-69
2023/01/07 02:59:09;;;;;;;;;4.00;4.00;;;;;11.94;44.30;100321.03;5000531;28;45512;-70
2023/01/07 03:02:04;;;;;;;;;3.00;2.00;;;;;11.89;44.48;100343.59;5055802;28;45319;-74
2023/01/07 03:04:47;;;;;;;;;1.67;1.67;;;;;11.82;44.44;100329.47;5051826;28;45315;-74
2023/01/07 03:07:37;;;;;;;;;1.67;1.33;;;;;11.71;44.70;100342.31;5055717;28;45456;-75
2023/01/07 03:10:24;;;;;;;;;4.00;2.00;;;;;11.64;45.02;100337.81;5055489;28;46343;-72
2023/01/07 03:13:09;;;;;;;;;1.00;1.00;;;;;11.48;45.07;100336.56;5055568;28;45455;-75
2023/01/07 03:16:00;;;;;;;;;2.00;1.67;;;;;11.39;45.45;100328.50;5048435;28;45418;-75
2023/01/07 03:18:29;;;;;;;;;2.00;1.00;;;;;11.31;45.79;100337.91;5049682;28;45661;-72
2023/01/07 03:21:02;;;;;;;;;1.00;1.00;;;;;11.23;46.19;100349.91;5055997;28;45347;-73
2023/01/07 03:23:29;;;;;;;;;2.50;2.50;;;;;11.14;46.24;100338.41;5055529;28;45352;-75
2023/01/07 03:26:00;;;;;;;;;2.00;2.00;;;;;11.14;45.83;100350.56;5055648;28;45202;-75
2023/01/07 03:28:31;;;;;;;;;1.00;1.00;;;;;11.03;46.31;100338.97;5055652;28;45431;-75
2023/01/07 03:30:59;;;;;;;;;1.00;1.00;;;;;10.98;46.44;100340.59;5054699;28;46189;-74
2023/01/07 03:33:33;;;;;;;;;1.00;1.00;;;;;10.72;46.74;100310.34;5058077;28;45520;-75
2023/01/07 03:36:00;;;;;;;;;1.00;1.00;;;;;10.80;46.68;100347.09;5060024;28;45493;-74
2023/01/07 03:38:27;;;;;;;;;1.00;1.00;;;;;10.80;47.00;100341.88;5058867;28;45400;-75
2023/01/07 03:40:52;;;;;;;;;1.67;1.67;;;;;10.75;46.90;100336.53;5058563;28;46142;-76
2023/01/07 03:43:19;;;;;;;;;1.67;1.67;;;;;10.69;47.28;100333.78;5058615;28;45421;-75
2023/01/07 03:45:47;;;;;;;;;1.67;1.00;;;;;10.63;47.45;100335.34;5059688;28;45414;-72
2023/01/07 03:48:13;;;;;;;;;2.00;2.00;;;;;10.60;47.53;100328.28;5058837;28;45762;-76
2023/01/07 03:50:38;;;;;;;;;5.00;3.00;;;;;10.50;48.23;100314.13;5058476;28;46205;-74
2023/01/07 03:53:04;;;;;;;;;3.33;2.00;;;;;10.53;48.06;100314.22;5058477;28;45407;-73
2023/01/07 03:55:29;;;;;;;;;2.00;2.00;;;;;10.45;48.32;100320.09;5059500;28;45316;-75
2023/01/07 03:57:55;;;;;;;;;4.50;4.50;;;;;10.30;48.78;100300.53;5058669;28;45276;-75
2023/01/07 04:00:21;;;;;;;;;7.50;7.50;;;;;10.24;49.24;100323.81;5058296;28;46179;-75
2023/01/07 04:02:47;;;;;;;;;9.00;7.75;;;;;10.15;49.32;100320.97;5058454;28;45608;-72
2023/01/07 04:05:12;;;;;;;;;2.50;2.50;;;;;10.02;50.13;100343.22;5054040;28;45382;-71
2023/01/07 04:07:38;;;;;;;;;4.50;4.50;;;;;9.96;50.02;100325.66;5058740;28;45624;-69
2023/01/07 04:10:05;;;;;;;;;3.00;3.00;;;;;9.94;49.76;100356.03;5058746;28;45980;-74
2023/01/07 04:12:31;;;;;;;;;4.00;4.00;;;;;9.68;50.32;100323.09;5058636;28;45464;-68
2023/01/07 04:14:56;;;;;;;;;3.00;3.00;;;;;9.57;51.27;100314.94;5056332;28;45322;-69
2023/01/07 04:17:22;;;;;;;;;9.00;7.00;;;;;9.63;50.71;100349.03;5058945;28;45228;-75
2023/01/07 04:19:47;;;;;;;;;2.50;2.50;;;;;9.61;50.52;100345.50;5057858;28;45480;-75
2023/01/07 04:22:13;;;;;;;;;3.00;3.00;;;;;9.64;50.46;100337.75;5058005;28;45466;-75
2023/01/07 04:24:38;;;;;;;;;2.50;2.25;;;;;9.58;50.72;100345.38;5057967;28;45366;-75
2023/01/07 04:27:04;;;;;;;;;3.25;3.00;;;;;9.45;51.36;100354.56;5059429;28;45266;-74
2023/01/07 04:29:30;;;;;;;;;2.50;2.50;;;;;9.34;51.63;100369.84;5057924;28;46082;-70
2023/01/07 04:31:55;;;;;;;;;4.50;3.25;;;;;9.26;51.97;100392.19;5058355;28;45196;-72
2023/01/07 04:34:21;;;;;;;;;3.50;3.00;;;;;9.19;51.83;100387.63;5058626;28;45479;-73
2023/01/07 04:36:46;;;;;;;;;3.25;3.25;;;;;9.14;51.96;100387.44;5058521;28;45544;-75
2023/01/07 04:39:12;;;;;;;;;5.00;3.00;;;;;9.02;51.81;100378.34;5058763;28;45437;-73
2023/01/07 04:41:38;;;;;;;;;4.50;2.75;;;;;9.10;51.71;100402.94;5058387;28;45465;-68
2023/01/07 04:44:03;;;;;;;;;4.00;3.00;;;;;9.04;51.65;100408.84;5058476;28;45406;-75
2023/01/07 04:46:29;;;;;;;;;5.00;5.00;;;;;8.98;51.41;100415.56;5058053;28;45424;-73
2023/01/07 04:48:55;;;;;;;;;3.25;3.00;;;;;8.91;51.84;100417.06;5057217;28;45497;-72
2023/01/07 04:51:20;;;;;;;;;3.00;3.00;;;;;8.94;51.61;100418.06;5057842;28;45512;-75
2023/01/07 04:53:46;;;;;;;;;3.75;3.75;;;;;8.94;51.46;100428.47;5057570;28;45422;-75
2023/01/07 04:56:12;;;;;;;;;3.75;3.75;;;;;8.95;51.15;100432.88;5057333;28;45454;-71
2023/01/07 04:58:38;;;;;;;;;15.00;13.75;;;;;8.94;51.49;100427.59;5056894;28;46064;-73
2023/01/07 05:01:04;;;;;;;;;8.75;8.00;;;;;8.76;51.53;100404.41;5056542;28;45425;-76
2023/01/07 05:03:30;;;;;;;;;7.50;5.25;;;;;8.92;51.55;100440.56;5056935;28;45474;-76
2023/01/07 05:05:56;;;;;;;;;4.00;3.00;;;;;8.88;51.33;100437.81;5057698;28;45430;-75
2023/01/07 05:08:22;;;;;;;;;4.00;3.25;;;;;8.88;51.71;100415.25;5056672;28;45398;-69
2023/01/07 05:10:51;;;;;;;;;4.50;4.50;;;;;8.88;51.43;100420.44;5057041;28;45505;-75
2023/01/07 05:13:19;;;;;;;;;5.00;4.00;;;;;8.91;51.33;100427.47;5057427;28;45217;-68
2023/01/07 05:15:45;;;;;;;;;3.25;3.25;;;;;8.93;51.41;100433.63;5057472;28;45383;-75
2023/01/07 05:18:10;;;;;;;;;3.50;3.00;;;;;8.91;51.32;100435.28;5056464;28;45731;-75
2023/01/07 05:20:36;;;;;;;;;2.50;2.00;;;;;8.69;51.42;100392.84;5057420;28;45414;-75
2023/01/07 05:23:02;;;;;;;;;6.75;4.75;;;;;8.86;51.62;100423.84;5057350;28;45306;-75
2023/01/07 05:25:28;;;;;;;;;3.00;3.00;;;;;8.84;51.31;100417.69;5057101;28;45502;-75
2023/01/07 05:27:53;;;;;;;;;4.50;4.50;;;;;8.83;51.47;100410.69;5055829;28;45715;-73
2023/01/07 05:30:19;;;;;;;;;3.50;3.25;;;;;8.58;51.29;100352.56;5056905;28;45410;-70
2023/01/07 05:32:44;;;;;;;;;2.00;2.00;;;;;8.81;51.42;100394.13;5056816;28;45758;-67
2023/01/07 05:35:10;;;;;;;;;5.25;3.75;;;;;8.79;50.80;100394.06;5056027;28;45689;-74
2023/01/07 05:37:35;;;;;;;;;3.00;3.00;;;;;8.85;50.65;100355.19;5056634;28;45343;-74
2023/01/07 05:40:01;;;;;;;;;5.50;5.25;;;;;8.96;50.24;100332.13;5056799;28;45514;-73
2023/01/07 05:42:26;;;;;;;;;5.25;5.25;;;;;9.05;49.71;100315.91;5056346;28;45512;-68
2023/01/07 05:44:52;;;;;;;;;5.00;4.75;;;;;9.04;50.01;100299.41;5056727;28;45651;-75
2023/01/07 05:47:17;;;;;;;;;3.25;3.00;;;;;9.01;49.82;100314.91;5056152;28;45747;-75
2023/01/07 05:49:43;;;;;;;;;4.25;4.00;;;;;8.96;49.92;100303.47;5055999;28;45356;-72
2023/01/07 05:52:08;;;;;;;;;0.00;0.00;;;;;8.91;50.16;100311.16;5057160;28;45423;-70
2023/01/07 05:54:34;;;;;;;;;5.50;4.00;;;;;8.82;50.47;100316.03;5056849;28;45443;-74
2023/01/07 05:56:59;;;;;;;;;5.75;4.00;;;;;8.58;50.40;100284.88;5055321;28;45902;-68
2023/01/07 05:59:25;;;;;;;;;7.50;4.00;;;;;8.72;50.63;100329.59;5056639;28;45417;-74
2023/01/07 06:01:50;;;;;;;;;3.00;3.00;;;;;8.71;50.52;100357.38;5054812;28;45483;-70
2023/01/07 06:04:16;;;;;;;;;2.50;2.00;;;;;8.72;50.52;100350.44;5055928;28;45465;-73
2023/01/07 06:06:41;;;;;;;;;3.00;3.00;;;;;8.65;50.28;100372.75;5056580;28;45962;-68
2023/01/07 06:09:07;;;;;;;;;4.00;3.00;;;;;8.75;50.53;100413.94;5038617;28;45691;-74
2023/01/07 06:11:32;;;;;;;;;5.25;5.25;;;;;8.73;50.68;100435.53;5056903;28;45407;-74
2023/01/07 06:13:58;;;;;;;;;4.00;3.00;;;;;8.75;50.94;100459.91;5056691;28;45617;-74
2023/01/07 06:16:23;;;;;;;;;4.00;3.00;;;;;8.73;51.11;100458.97;5056299;28;45693;-74
2023/01/07 06:18:49;;;;;;;;;3.75;3.75;;;;;8.74;51.29;100464.25;5056208;28;45441;-69
2023/01/07 06:21:15;;;;;;;;;4.00;3.00;;;;;8.75;50.96;100478.13;5056153;28;45298;-70
2023/01/07 06:23:42;;;;;;;;;3.25;3.25;;;;;8.76;50.92;100479.94;5056315;28;45454;-70
2023/01/07 06:26:07;;;;;;;;;4.00;3.00;;;;;8.72;51.23;100491.06;5056824;28;46193;-75
2023/01/07 06:28:33;;;;;;;;;8.75;7.25;;;;;8.69;51.21;100485.72;5056759;28;45347;-74
2023/01/07 06:30:58;;;;;;;;;7.50;6.00;;;;;8.68;51.37;100478.78;5057333;28;45325;-69
2023/01/07 06:33:24;;;;;;;;;5.25;5.00;;;;;8.68;51.39;100465.75;5057165;28;45462;-74
2023/01/07 06:35:50;;;;;;;;;7.00;5.50;;;;;8.66;51.73;100483.91;5055980;28;46174;-73
2023/01/07 06:38:15;;;;;;;;;4.00;4.00;;;;;8.67;51.37;100482.19;5055759;28;45458;-71
2023/01/07 06:40:43;;;;;;;;;4.00;3.50;;;;;8.75;51.16;100479.06;5055640;28;45444;-68
2023/01/07 06:43:08;;;;;;;;;6.75;5.00;;;;;8.78;50.42;100469.56;5056496;28;45336;-75
2023/01/07 06:45:34;;;;;;;;;7.00;5.00;;;;;8.81;50.46;100477.47;5048495;28;46165;-70
2023/01/07 06:47:59;;;;;;;;;3.00;2.50;;;;;8.88;50.39;100467.34;5054442;28;45371;-74
2023/01/07 06:50:25;;;;;;;;;4.75;4.75;;;;;8.90;50.65;100468.28;5056149;28;45371;-75
2023/01/07 06:52:51;;;;;;;;;3.75;3.00;;;;;8.91;50.73;100492.59;5056095;28;45435;-75
2023/01/07 06:55:16;;;;;;;;;21.00;13.50;;;;;8.88;50.51;100480.38;5055372;28;45431;-74
2023/01/07 06:57:43;;;;;;;;;10.00;9.00;;;;;8.91;50.55;100470.06;5055269;28;45517;-74
2023/01/07 07:00:09;;;;;;;;;8.25;4.75;;;;;8.85;50.49;100451.59;5055968;28;45309;-71
2023/01/07 07:02:34;;;;;;;;;3.75;3.00;;;;;9.03;50.66;100440.03;5055256;28;45466;-68
2023/01/07 07:05:00;;;;;;;;;5.25;4.50;;;;;9.09;50.67;100450.66;5055649;28;45413;-70
2023/01/07 07:07:25;;;;;;;;;5.00;3.75;;;;;9.05;50.26;100434.06;5057389;28;45724;-72
2023/01/07 07:09:51;;;;;;;;;3.25;3.25;;;;;9.03;50.08;100435.75;5058586;28;45459;-73
2023/01/07 07:12:18;;;;;;;;;4.00;4.00;;;;;8.86;50.09;100411.69;5059107;28;45480;-67
2023/01/07 07:14:43;;;;;;;;;3.50;3.00;;;;;9.16;49.90;100444.84;5058732;28;45403;-74
2023/01/07 07:17:09;;;;;;;;;3.00;2.75;;;;;9.19;49.92;100421.50;5059047;28;45479;-67
2023/01/07 07:19:34;;;;;;;;;6.50;6.50;;;;;9.30;49.87;100420.13;5059223;28;45241;-74
2023/01/07 07:22:00;;;;;;;;;4.50;4.00;;;;;9.36;49.70;100411.63;5059556;28;45351;-73
2023/01/07 07:24:25;;;;;;;;;7.00;5.50;;;;;9.46;49.63;100410.19;5057535;28;45490;-66
2023/01/07 07:26:52;;;;;;;;;6.00;5.00;;;;;9.57;49.40;100408.84;5057638;28;45379;-67
2023/01/07 07:29:17;;;;;;;;;8.50;7.75;;;;;9.58;49.45;100392.34;5057921;28;45563;-72
2023/01/07 07:31:43;;;;;;;;;11.00;10.25;;;;;9.53;49.59;100393.94;5058820;28;45506;-66
2023/01/07 07:34:09;;;;;;;;;9.00;7.50;;;;;9.42;49.67;100367.50;5057373;28;45858;-68
2023/01/07 07:36:35;;;;;;;;;7.50;6.50;;;;;9.43;49.99;100370.97;5058344;28;45634;-69
2023/01/07 07:39:02;;;;;;;;;7.00;5.50;;;;;9.39;50.11;100359.59;5058295;28;45498;-74
2023/01/07 07:41:29;;;;;;;;;7.25;7.00;;;;;9.47;50.21;100351.97;5058039;28;45516;-73
2023/01/07 07:43:54;;;;;;;;;7.00;5.75;;;;;9.55;50.51;100361.84;5057539;28;46195;-73
2023/01/07 07:46:20;;;;;;;;;7.25;7.00;;;;;9.60;50.63;100364.56;5058222;28;45359;-72
2023/01/07 07:48:48;;;;;;;;;5.00;5.00;;;;;9.38;50.67;100302.19;5057960;28;45213;-70
2023/01/07 07:51:13;;;;;;;;;5.00;4.00;;;;;9.73;50.84;100332.81;5058464;28;45522;-73
2023/01/07 07:53:39;;;;;;;;;7.75;7.75;;;;;9.86;50.48;100331.44;5055146;28;45524;-68
2023/01/07 07:56:08;;;;;;;;;4.25;4.00;;;;;10.02;50.43;100337.13;5057640;28;45569;-71
2023/01/07 07:58:33;;;;;;;;;4.00;4.00;;;;;10.09;50.34;100331.25;5057717;28;45610;-69
2023/01/07 08:01:00;;;;;;;;;8.75;7.75;;;;;10.12;50.22;100324.34;5055400;28;45563;-74
2023/01/07 08:03:26;;;;;;;;;5.00;5.00;;;;;10.31;50.04;100332.75;5056740;28;46197;-75
2023/01/07 08:05:51;;;;;;;;;5.75;4.00;;;;;10.40;49.59;100327.78;5057651;28;45384;-71
2023/01/07 08:08:17;;;;;;;;;5.25;4.00;;;;;10.41;49.31;100293.00;5057861;28;45434;-70
2023/01/07 08:10:42;;;;;;;;;3.75;2.75;;;;;10.72;48.93;100333.88;5057310;28;45431;-67
2023/01/07 08:13:08;;;;;;;;;5.00;4.50;;;;;10.85;48.74;100324.59;5056959;28;45320;-72
2023/01/07 08:15:35;;;;;;;;;3.75;2.75;;;;;10.94;48.49;100326.53;5057880;28;45414;-67
2023/01/07 08:18:04;;;;;;;;;3.75;3.75;;;;;11.09;47.91;100303.41;5056382;28;45556;-68
2023/01/07 08:20:30;;;;;;;;;4.25;3.00;;;;;11.26;47.88;100314.28;5057166;28;45539;-68
2023/01/07 08:23:03;;;;;;;;;2.75;2.50;;;;;11.45;47.17;100307.72;5054312;28;45643;-68
2023/01/07 08:25:29;;;;;;;;;4.00;2.00;;;;;11.60;46.84;100301.97;5056753;28;45615;-71
2023/01/07 08:27:57;;;;;;;;;3.75;3.75;;;;;11.73;46.37;100317.06;5056070;28;45486;-73
2023/01/07 08:30:23;;;;;;;;;3.50;2.75;;;;;11.85;46.44;100310.31;5057628;28;45430;-73
2023/01/07 08:32:49;;;;;;;;;2.75;2.00;;;;;11.95;46.60;100325.41;5057182;28;46225;-68
2023/01/07 08:35:15;;;;;;;;;2.75;2.75;;;;;12.06;46.40;100325.63;5057479;28;45475;-70
2023/01/07 08:37:41;;;;;;;;;2.00;2.00;;;;;12.20;45.74;100313.69;5057116;28;45458;-76
2023/01/07 08:40:07;;;;;;;;;2.50;2.00;;;;;12.30;44.85;100294.69;5057537;28;45263;-75
2023/01/07 08:42:33;;;;;;;;;3.00;2.50;;;;;12.44;44.83;100309.78;5056753;28;45429;-68
2023/01/07 08:44:58;;;;;;;;;3.50;3.00;;;;;12.53;44.63;100318.69;5056845;28;45537;-75
2023/01/07 08:47:27;;;;;;;;;5.50;5.25;;;;;12.64;44.43;100328.50;5056174;28;45318;-76
2023/01/07 08:49:53;;;;;;;;;4.75;4.00;;;;;12.70;44.19;100313.75;5056406;28;45379;-69
2023/01/07 08:52:20;;;;;;;;;3.00;3.00;;;;;12.80;44.08;100317.41;5056722;28;45435;-73
2023/01/07 08:54:47;;;;;;;;;3.67;3.67;;;;;12.89;43.74;100311.44;5056580;28;45538;-71
2023/01/07 08:57:13;;;;;;;;;4.00;3.00;;;;;12.90;44.26;100319.31;5056984;28;45443;-67
2023/01/07 08:59:39;;;;;;;;;3.00;3.00;;;;;12.91;44.06;100323.72;5056381;28;45740;-68
2023/01/07 09:02:11;;;;;;;;;5.00;2.00;;;;;13.02;44.03;100330.88;5056071;28;46180;-71
2023/01/07 09:04:37;;;;;;;;;3.67;3.00;;;;;13.06;44.40;100332.69;5056294;28;45442;-67
2023/01/07 09:07:02;;;;;;;;;2.67;2.67;;;;;13.12;43.67;100332.81;5055703;28;45344;-67
2023/01/07 09:09:28;;;;;;;;;2.67;2.00;;;;;13.19;43.64;100339.91;5056303;28;45258;-67
2023/01/07 09:11:53;;;;;;;;;3.00;3.00;;;;;13.06;43.43;100303.84;5055439;28;46107;-66
2023/01/07 09:14:19;;;;;;;;;5.00;5.00;;;;;13.30;43.50;100340.09;5056246;28;45501;-74
2023/01/07 09:16:44;;;;;;;;;3.00;3.00;;;;;13.27;43.63;100332.16;5056091;28;45438;-75
2023/01/07 09:19:10;;;;;;;;;4.25;4.00;;;;;13.41;42.94;100345.50;5056684;28;46064;-68
2023/01/07 09:21:35;;;;;;;;;2.67;2.33;;;;;13.53;42.96;100338.72;5056081;28;45970;-71
2023/01/07 09:24:01;;;;;;;;;2.33;2.33;;;;;13.54;42.29;100344.84;5055897;28;45485;-67
2023/01/07 09:26:26;;;;;;;;;3.33;3.00;;;;;13.56;42.53;100343.13;5054574;28;45348;-70
2023/01/07 09:28:52;;;;;;;;;3.00;3.00;;;;;13.39;42.93;100321.91;5055621;28;45645;-68
2023/01/07 09:31:17;;;;;;;;;4.33;3.67;;;;;13.64;42.77;100356.34;5055488;28;45407;-68
2023/01/07 09:33:43;;;;;;;;;2.00;2.00;;;;;13.69;42.68;100362.56;5055596;28;45358;-69
2023/01/07 09:36:08;;;;;;;;;3.33;3.33;;;;;13.68;42.29;100374.78;5009647;28;45708;-73
2023/01/07 09:38:34;;;;;;;;;1.00;1.00;;;;;13.58;42.78;100366.78;5010223;28;45653;-73
2023/01/07 09:40:59;;;;;;;;;4.00;4.00;;;;;13.59;42.72;100368.53;5010974;28;45560;-74
2023/01/07 09:43:35;;;;;;;;;3.00;3.00;;;;;13.56;42.48;100372.00;5009057;28;45407;-71
2023/01/07 09:46:04;;;;;;;;;3.00;3.00;;;;;13.56;42.50;100364.13;5026326;28;45371;-69
2023/01/07 09:48:32;;;;;;;;;4.00;3.67;;;;;13.65;42.72;100371.25;5021215;28;45347;-67
2023/01/07 09:51:19;;;;;;;;;3.00;3.00;;;;;13.73;42.49;100375.75;5007452;28;45514;-69
2023/01/07 09:53:53;;;;;;;;;2.67;2.00;;;;;13.62;42.19;100348.44;5007611;28;45408;-68
2023/01/07 09:56:24;;;;;;;;;5.00;3.67;;;;;13.79;42.25;100368.84;5006060;28;45514;-68
2023/01/07 09:58:50;;;;;;;;;4.00;3.00;;;;;13.60;41.93;100330.94;5005746;28;45677;-70
2023/01/07 10:01:18;;;;;;;;;4.00;3.00;;;;;13.87;42.47;100365.44;5001095;28;45428;-69
2023/01/07 10:03:44;;;;;;;;;3.67;3.00;;;;;13.98;41.83;100360.31;5011589;28;45415;-69
2023/01/07 10:06:33;;;;;;;;;3.00;3.00;;;;;13.96;41.81;100379.56;5021930;28;45685;-67
2023/01/07 10:09:00;;;;;;;;;5.00;4.00;;;;;14.01;42.28;100377.88;5010876;28;45481;-69
2023/01/07 10:11:39;;;;;;;;;7.00;5.00;;;;;14.05;41.93;100375.31;5009605;28;45583;-68
2023/01/07 10:14:34;;;;;;;;;6.00;5.33;;;;;14.21;41.71;100386.03;5006814;28;45347;-72
2023/01/07 10:16:59;;;;;;;;;4.00;4.00;;;;;14.29;41.66;100373.84;5006736;28;45776;-70
2023/01/07 10:20:08;;;;;;;;;4.33;3.00;;;;;14.24;42.09;100379.03;5006127;28;45474;-70
2023/01/07 10:22:38;;;;;;;;;3.00;3.00;;;;;14.16;42.03;100374.56;5015250;28;45492;-71
2023/01/07 10:25:14;;;;;;;;;2.00;2.00;;;;;14.09;42.61;100368.34;5016400;28;45305;-68
2023/01/07 10:27:43;;;;;;;;;3.25;2.25;;;;;14.02;42.50;100351.63;5016227;28;45505;-68
2023/01/07 10:30:22;;;;;;;;;3.00;2.50;;;;;13.99;43.03;100375.22;5023800;28;45475;-73
2023/01/07 10:32:52;;;;;;;;;2.67;2.00;;;;;13.87;43.05;100394.31;5033143;28;45517;-71
2023/01/07 10:35:21;;;;;;;;;1.00;1.00;;;;;13.88;42.97;100397.81;5021682;28;45445;-72
2023/01/07 10:37:46;;;;;;;;;3.00;2.00;;;;;13.84;43.14;100396.91;5015475;28;45332;-72
2023/01/07 10:40:21;;;;;;;;;3.00;3.00;;;;;13.89;43.22;100397.84;5021570;28;45375;-69
2023/01/07 10:42:53;;;;;;;;;2.00;2.00;;;;;13.85;43.27;100405.69;5022191;28;46027;-72
2023/01/07 10:45:39;;;;;;;;;4.00;2.00;;;;;13.73;43.72;100399.38;5013343;28;45583;-73
2023/01/07 10:48:23;;;;;;;;;2.67;2.67;;;;;13.76;44.36;100405.53;5019419;28;45618;-71
2023/01/07 10:51:24;;;;;;;;;2.00;2.00;;;;;13.72;45.27;100418.59;5032763;28;45367;-69
2023/01/07 10:53:57;;;;;;;;;3.33;3.00;;;;;13.66;46.03;100402.75;5009041;28;45542;-68
2023/01/07 10:56:26;;;;;;;;;4.00;4.00;;;;;13.49;46.59;100401.63;4999936;28;45455;-68
2023/01/07 10:58:51;;;;;;;;;6.00;5.00;;;;;13.43;46.40;100412.00;5000241;28;45328;-73
2023/01/07 11:01:25;;;;;;;;;3.00;2.00;;;;;13.41;47.38;100406.75;5000188;28;45502;-70
2023/01/07 11:03:54;;;;;;;;;3.33;3.00;;;;;13.43;48.17;100418.16;5009669;28;45491;-73
2023/01/07 11:06:40;;;;;;;;;2.67;2.67;;;;;13.46;48.66;100406.81;5009728;28;45553;-69
2023/01/07 11:09:12;;;;;;;;;3.00;3.00;;;;;13.38;48.90;100396.19;5013266;28;45640;-68
2023/01/07 11:11:39;;;;;;;;;4.00;4.00;;;;;13.39;49.23;100383.97;5012983;28;45447;-70
2023/01/07 11:14:33;;;;;;;;;4.00;4.00;;;;;13.39;48.89;100376.09;5019942;28;46159;-74
2023/01/07 11:17:16;;;;;;;;;3.00;3.00;;;;;13.39;48.90;100353.38;5016853;28;45332;-73
2023/01/07 11:19:45;;;;;;;;;3.00;3.00;;;;;13.39;49.21;100352.47;5011395;28;45495;-74
2023/01/07 11:22:25;;;;;;;;;4.00;4.00;;;;;13.29;49.58;100373.34;5028063;28;45414;-70
2023/01/07 11:24:52;;;;;;;;;3.33;3.33;;;;;13.30;50.58;100368.97;5025607;28;45509;-68
2023/01/07 11:27:20;;;;;;;;;3.00;3.00;;;;;13.31;50.38;100350.63;5018855;28;45752;-69
2023/01/07 11:29:54;;;;;;;;;3.67;3.00;;;;;13.33;50.55;100364.66;5018845;28;45444;-68
2023/01/07 11:32:26;;;;;;;;;3.67;3.67;;;;;13.22;51.75;100347.81;5016228;28;45718;-68
2023/01/07 11:35:05;;;;;;;;;5.75;5.00;;;;;13.16;51.40;100339.84;5012187;28;46045;-73
2023/01/07 11:37:39;;;;;;;;;4.25;4.25;;;;;13.16;51.42;100336.34;5012710;28;45816;-69